Latest Weather Observations for Dartmoor

IDV60801

Issued at 4:05 pm EDT Monday 24 November 2014 (issued every 30 minutes, with the page automatically refreshed every 10 minutes)

About weather observations | Map of weather stations | Latest weather observations for VIC | Other Formats
Station Details ID: 090194 Name: DARTMOOR Lat: -37.92 Lon: 141.26 Height: 51.0 m
Data from the previous 72 hours. | See also: Recent months at Dartmoor
Date/Time
EDT
Temp
°C
App
Temp
°C
Dew
Point
Rel
Hum
%
Delta-T
°C
Wind Press
QNH
hPa
Press
MSL
hPa
Rain
since 9 am
mm
Dir
 
Spd
km/h
Gust
km/h
Spd
kts
Gust
kts
24/04:00pm 17.6 12.0 10.2 62 3.9 WSW 30 46 16 25 1011.0 1010.9 2.2
24/03:50pm 18.0 12.7 9.9 59 4.3 WSW 28 46 15 25 1010.9 1010.8 2.2
24/03:30pm 17.3 13.6 11.6 69 3.1 WSW 22 39 12 21 1011.0 1010.9 2.2
24/03:00pm 14.0 10.1 13.2 95 0.4 WSW 26 46 14 25 1011.1 1011.0 2.2
24/02:51pm 14.4 8.6 13.8 96 0.3 WSW 37 46 20 25 1010.9 1010.8 2.2
24/02:30pm 14.6 14.0 14.6 100 0.0 WSW 11 19 6 10 1010.9 1010.8 2.2
24/02:00pm 13.7 12.4 13.7 100 0.0 WSW 13 20 7 11 1011.0 1010.9 2.2
24/01:30pm 13.0 10.3 13.0 100 0.0 WSW 19 39 10 21 1011.0 1010.9 2.2
24/01:00pm 14.6 11.1 14.6 100 0.0 WSW 26 37 14 20 1010.6 1010.5 1.8
24/12:30pm 18.2 15.8 14.3 78 2.2 WSW 20 30 11 16 1009.9 1009.8 1.6
24/12:00pm 19.4 18.3 14.4 73 2.9 WSW 13 20 7 11 1009.7 1009.6 1.6
24/11:30am 19.2 18.8 15.3 78 2.3 SW 11 20 6 11 1009.8 1009.7 1.6
24/11:00am 17.8 18.3 16.5 92 0.8 WSW 9 15 5 8 1009.8 1009.7 1.6
24/10:30am 16.2 17.9 16.2 100 0.0 WSW 2 6 1 3 1009.6 1009.5 1.6
24/10:00am 15.7 15.9 15.7 100 0.0 SW 9 13 5 7 1009.6 1009.5 1.6
24/09:30am 15.2 15.7 15.0 99 0.1 WSW 6 9 3 5 1009.8 1009.7 1.6
24/09:00am 15.6 16.1 15.6 100 0.0 SW 7 9 4 5 1009.3 1009.2 0.2
24/08:30am 14.2 15.2 14.2 100 0.0 SSE 2 6 1 3 1009.0 1008.9 0.2
24/08:00am 13.3 13.2 13.3 100 0.0 SSW 6 9 3 5 1008.8 1008.7 0.2
24/07:30am 13.2 14.2 13.2 100 0.0 NNE 0 0 0 0 1009.9 1009.8 0.0
24/07:00am 13.0 13.9 13.0 100 0.0 CALM 0 0 0 0 1009.6 1009.5 0.0
24/06:30am 12.2 12.9 12.2 100 0.0 CALM 0 0 0 0 1008.8 1008.7 0.0
24/06:00am 11.9 11.4 11.9 100 0.0 SSW 6 9 3 5 1008.5 1008.4 0.0
24/05:30am 12.2 12.8 11.9 98 0.2 CALM 0 0 0 0 1008.6 1008.5 0.0
24/05:00am 12.5 12.0 12.2 98 0.2 W 6 9 3 5 1009.3 1009.2 0.0
24/04:30am 12.1 12.6 11.6 97 0.3 CALM 0 0 0 0 1008.1 1008.0 0.0
24/04:00am 12.6 13.3 12.1 97 0.3 CALM 0 0 0 0 1008.3 1008.2 0.0
24/03:30am 12.6 12.0 12.3 98 0.2 SSW 7 13 4 7 1009.3 1009.2 0.0
24/03:00am 13.1 12.6 12.6 97 0.3 SE 7 9 4 5 1009.4 1009.3 0.0
24/02:30am 13.0 13.3 12.1 94 0.5 ESE 2 7 1 4 1008.8 1008.7 0.0
24/02:00am 13.7 14.5 12.4 92 0.7 CALM 0 0 0 0 1009.6 1009.5 0.0
24/01:30am 14.1 14.9 12.5 90 0.9 CALM 0 2 0 1 1010.6 1010.5 0.0
24/01:00am 14.5 15.0 12.9 90 0.9 E 2 7 1 4 1011.1 1011.0 0.0
24/12:30am 14.3 14.4 12.7 90 0.9 ESE 4 7 2 4 1011.6 1011.5 0.0
24/12:00am 13.9 13.4 12.1 89 1.0 ESE 6 6 3 3 1011.9 1011.8 0.0
 
Date/Time
EDT
Temp
°C
App
Temp
°C
Dew
Point
Rel
Hum
%
Delta-T
°C
Wind Press
QNH
hPa
Press
MSL
hPa
Rain
since 9 am
mm
Dir
 
Spd
km/h
Gust
km/h
Spd
kts
Gust
kts
23/11:30pm 13.2 12.7 10.7 85 1.3 S 4 6 2 3 1012.8 1012.7 0.0
23/11:00pm 13.8 13.6 10.4 80 1.8 SE 2 4 1 2 1012.7 1012.6 0.0
23/10:30pm 15.0 14.4 11.6 80 1.8 ENE 6 9 3 5 1012.6 1012.5 0.0
23/10:00pm 14.8 14.0 11.0 78 2.0 S 6 7 3 4 1012.4 1012.3 0.0
23/09:30pm 16.0 15.9 10.7 71 2.8 SSW 2 7 1 4 1012.8 1012.7 0.0
23/09:00pm 16.3 15.3 11.0 71 2.8 SSE 7 9 4 5 1012.2 1012.1 0.0
23/08:30pm 16.6 15.6 11.1 70 3.0 S 7 9 4 5 1012.3 1012.2 0.0
23/08:00pm 17.0 15.5 10.6 66 3.4 SSW 9 13 5 7 1012.4 1012.3 0.0
23/07:30pm 17.9 16.8 10.8 63 3.8 S 7 11 4 6 1012.4 1012.3 0.0
23/07:00pm 18.3 16.0 10.4 60 4.2 SSW 13 19 7 10 1013.0 1012.9 0.0
23/06:30pm 18.9 15.9 9.4 54 5.0 S 15 24 8 13 1011.1 1011.0 0.0
23/06:00pm 20.2 17.2 10.6 54 5.2 SSW 17 24 9 13 1011.4 1011.3 0.0
23/05:30pm 21.9 19.3 11.9 53 5.6 SSW 17 22 9 12 1011.5 1011.4 0.0
23/05:00pm 22.6 20.2 12.5 53 5.8 S 17 19 9 10 1012.0 1011.9 0.0
23/04:30pm 23.0 19.8 12.0 50 6.2 SSW 20 28 11 15 1012.0 1011.9 0.0
23/04:00pm 23.9 20.9 12.5 49 6.5 SSW 20 32 11 17 1011.6 1011.5 0.0
23/03:30pm 25.0 23.2 12.2 44 7.3 WSW 13 24 7 13 1011.4 1011.3 0.0
23/03:00pm 25.6 22.9 10.2 38 8.6 NW 15 30 8 16 1011.7 1011.6 0.0
23/02:30pm 24.9 20.9 9.2 37 8.5 NW 20 30 11 16 1011.8 1011.7 0.0
23/02:00pm 24.2 23.1 10.1 41 7.8 WNW 6 19 3 10 1011.6 1011.5 0.0
23/01:30pm 23.7 20.9 10.0 42 7.5 WNW 15 28 8 15 1011.9 1011.8 0.0
23/01:00pm 22.1 18.4 9.3 44 6.9 NW 19 28 10 15 1012.2 1012.1 0.0
23/12:30pm 21.1 19.0 9.7 48 6.1 W 11 20 6 11 1012.0 1011.9 0.0
23/12:00pm 21.1 18.3 10.0 49 6.0 WNW 15 22 8 12 1012.5 1012.4 0.0
23/11:30am 20.7 18.7 10.2 51 5.7 N 11 17 6 9 1012.6 1012.5 0.0
23/11:00am 19.0 17.7 11.3 61 4.2 NNW 9 15 5 8 1012.7 1012.6 0.0
23/10:30am 17.8 19.4 17.8 100 0.0 N 6 15 3 8 1013.1 1013.0 0.0
23/10:00am 14.8 15.0 14.8 100 0.0 N 7 11 4 6 1013.5 1013.4 0.0
23/09:30am 13.3 13.6 13.3 100 0.0 N 4 9 2 5 1013.7 1013.6 0.0
23/09:00am 12.5 12.0 12.5 100 0.0 N 7 9 4 5 1013.6 1013.5 0.0
23/08:30am 11.9 11.4 11.9 100 0.0 N 6 9 3 5 1013.4 1013.3 0.0
23/08:00am 11.2 11.6 11.2 100 0.0 CALM 0 0 0 0 1012.9 1012.8 0.0
23/07:30am 10.4 9.4 10.4 100 0.0 N 6 7 3 4 1012.6 1012.5 0.0
23/07:00am 10.1 10.2 10.1 100 0.0 CALM 0 0 0 0 1012.2 1012.1 0.0
23/06:30am 9.8 9.8 9.8 100 0.0 CALM 0 0 0 0 1011.9 1011.8 0.0
23/06:00am 9.9 9.9 9.9 100 0.0 CALM 0 0 0 0 1011.5 1011.4 0.0
23/05:30am 10.2 10.3 10.2 100 0.0 CALM 0 0 0 0 1011.4 1011.3 0.0
23/05:00am 10.6 10.8 10.6 100 0.0 CALM 0 0 0 0 1011.1 1011.0 0.0
23/04:30am 10.6 10.8 10.6 100 0.0 CALM 0 0 0 0 1011.1 1011.0 0.0
23/04:00am 10.8 11.1 10.8 100 0.0 CALM 0 0 0 0 1011.0 1010.9 0.0
23/03:30am 10.8 11.1 10.8 100 0.0 CALM 0 0 0 0 1011.0 1010.9 0.0
23/03:00am 10.8 11.1 10.8 100 0.0 CALM 0 0 0 0 1011.0 1010.9 0.0
23/02:30am 10.6 10.8 10.6 100 0.0 CALM 0 0 0 0 1011.2 1011.1 0.0
23/02:00am 10.8 9.4 10.8 100 0.0 W 9 9 5 5 1011.3 1011.2 0.0
23/01:30am 10.9 11.2 10.9 100 0.0 CALM 0 0 0 0 1011.5 1011.4 0.0
23/01:00am 11.1 11.5 11.1 100 0.0 CALM 0 0 0 0 1011.5 1011.4 0.0
23/12:30am 12.4 12.4 12.4 100 0.0 NNW 4 4 2 2 1011.2 1011.1 0.0
23/12:00am 12.8 13.3 12.8 100 0.0 NW 2 4 1 2 1011.1 1011.0 0.0
 
Date/Time
EDT
Temp
°C
App
Temp
°C
Dew
Point
Rel
Hum
%
Delta-T
°C
Wind Press
QNH
hPa
Press
MSL
hPa
Rain
since 9 am
mm
Dir
 
Spd
km/h
Gust
km/h
Spd
kts
Gust
kts
22/11:30pm 13.3 13.2 13.3 100 0.0 W 6 7 3 4 1011.1 1011.0 0.0
22/11:00pm 13.4 13.7 13.4 100 0.0 WSW 4 7 2 4 1011.0 1010.9 0.0
22/10:30pm 14.1 14.6 14.1 100 0.0 WSW 4 6 2 3 1010.8 1010.7 0.0
22/10:00pm 14.5 14.8 14.5 100 0.0 W 6 6 3 3 1010.4 1010.3 0.0
22/09:30pm 15.2 15.5 15.0 99 0.1 WSW 7 13 4 7 1009.9 1009.8 0.0
22/09:00pm 16.1 15.0 14.3 89 1.0 SW 13 20 7 11 1009.3 1009.2 0.0
22/08:30pm 17.0 16.0 13.5 80 2.0 WSW 11 19 6 10 1008.7 1008.6 0.0
22/08:00pm 18.2 16.5 13.5 74 2.7 WSW 15 24 8 13 1008.1 1008.0 0.0
22/07:30pm 19.4 16.8 13.3 68 3.5 SW 19 26 10 14 1007.6 1007.6 0.0
22/07:00pm 21.0 17.6 13.7 63 4.2 SW 24 35 13 19 1006.9 1006.9 0.0
22/06:30pm 23.1 19.8 14.1 57 5.3 SW 24 33 13 18 1006.0 1006.0 0.0
22/06:00pm 24.6 21.7 12.9 48 6.8 W 20 35 11 19 1005.6 1005.6 0.0
22/05:34pm 26.9 22.5 12.9 42 8.2 WNW 28 48 15 26 1005.3 1005.3 0.0
22/05:30pm 26.5 21.0 12.5 41 8.1 WNW 33 48 18 26 1005.1 1005.1 0.0
22/05:00pm 27.6 23.4 13.5 41 8.4 W 28 44 15 24 1004.7 1004.7 0.0
22/04:30pm 27.0 23.1 13.4 43 8.0 W 26 43 14 23 1004.7 1004.7 0.0
22/04:00pm 29.4 24.4 12.3 34 10.1 WNW 30 48 16 26 1003.9 1003.9 0.0
22/03:37pm 30.6 25.9 12.0 32 10.9 NW 28 48 15 26 1003.8 1003.8 0.0
22/03:30pm 29.8 25.0 11.8 33 10.5 WNW 28 44 15 24 1004.0 1004.0 0.0
22/03:04pm 30.6 24.9 11.1 30 11.3 WNW 32 50 17 27 1004.4 1004.4 0.0
22/03:00pm 30.4 24.3 10.4 29 11.5 WNW 33 52 18 28 1004.4 1004.4 0.0
22/02:49pm 30.2 23.5 9.7 28 11.6 WNW 35 59 19 32 1004.3 1004.3 0.0
22/02:30pm 30.7 26.0 10.6 29 11.5 NNW 26 41 14 22 1004.4 1004.4 0.0
22/02:19pm 30.3 24.2 10.3 29 11.4 NNW 33 54 18 29 1004.6 1004.6 0.0
22/02:00pm 30.5 24.3 9.9 28 11.7 NNW 33 52 18 28 1004.7 1004.7 0.0
22/01:35pm 30.3 24.1 9.2 27 11.8 NNW 32 50 17 27 1004.8 1004.8 0.0
22/01:30pm 30.4 24.4 8.7 26 12.1 NNW 30 43 16 23 1004.9 1004.9 0.0
22/01:00pm 29.7 23.1 8.7 27 11.7 NNW 33 56 18 30 1005.1 1005.1 0.0
22/12:30pm 30.1 23.1 8.5 26 11.9 N 35 54 19 29 1005.3 1005.3 0.0
22/12:01pm 28.9 23.5 9.6 30 10.8 N 28 48 15 26 1005.7 1005.7 0.0
22/12:00pm 28.8 23.2 10.0 31 10.6 N 30 48 16 26 1005.7 1005.7 0.0
22/11:30am 26.4 20.1 9.7 35 9.2 N 33 54 18 29 1006.0 1006.0 0.0
22/11:23am 26.0 20.2 9.4 35 9.1 N 30 48 16 26 1006.0 1006.0 0.0
22/11:00am 25.4 21.9 10.8 40 8.2 N 20 35 11 19 1006.3 1006.3 0.0
22/10:30am 22.8 19.8 10.6 46 6.7 N 17 26 9 14 1006.6 1006.6 0.0
22/10:00am 19.6 17.6 11.4 59 4.5 NNE 13 20 7 11 1007.1 1007.1 0.0
22/09:30am 18.7 15.4 11.0 61 4.2 NNE 19 28 10 15 1007.4 1007.4 0.0
22/09:00am 17.2 14.0 11.2 68 3.3 NNE 19 30 10 16 1007.4 1007.4 0.4
22/08:30am 16.7 14.4 11.6 72 2.8 N 15 22 8 12 1008.0 1007.9 0.4
22/08:00am 15.9 14.5 12.1 78 2.1 NE 11 17 6 9 1007.6 1007.6 0.4
22/07:30am 14.6 13.2 14.6 100 0.0 NE 15 20 8 11 1006.9 1006.9 0.4
22/07:00am 13.2 11.0 13.2 100 0.0 NE 17 22 9 12 1007.1 1007.1 0.4
22/06:30am 12.2 10.0 12.2 100 0.0 NE 15 20 8 11 1007.8 1007.8 0.4
22/06:00am 12.3 12.3 12.3 100 0.0 NE 4 7 2 4 1009.4 1009.3 0.2
22/05:30am 12.4 13.2 12.4 100 0.0 CALM 0 0 0 0 1010.0 1009.9 0.2
22/05:00am 12.2 12.9 12.2 100 0.0 CALM 0 0 0 0 1008.7 1008.6 0.2
22/04:30am 11.8 11.0 11.8 100 0.0 ESE 7 9 4 5 1008.8 1008.7 0.2
22/04:00am 12.4 12.0 12.4 100 0.0 E 6 7 3 4 1009.3 1009.2 0.2
22/03:30am 12.7 11.5 12.7 100 0.0 SSW 11 19 6 10 1010.3 1010.2 0.2
22/03:00am 12.9 11.0 12.9 100 0.0 SW 15 20 8 11 1011.3 1011.2 0.2
22/02:42am 12.3 7.7 12.3 100 0.0 SW 28 41 15 22 1010.3 1010.2 0.2
22/02:30am 12.2 11.7 12.2 100 0.0 NE 6 9 3 5 1008.6 1008.5 0.2
22/02:00am 12.0 10.9 12.0 100 0.0 ENE 9 13 5 7 1008.7 1008.6 0.2
22/01:30am 12.3 11.7 12.3 100 0.0 NE 7 9 4 5 1009.2 1009.1 0.2
22/01:00am 12.7 11.8 12.7 100 0.0 NE 9 11 5 6 1009.7 1009.6 0.2
22/12:30am 13.7 13.2 13.7 100 0.0 NNE 9 13 5 7 1010.5 1010.4 0.2
22/12:00am 13.4 12.8 13.4 100 0.0 ENE 9 13 5 7 1010.6 1010.5 0.2
 
Date/Time
EDT
Temp
°C
App
Temp
°C
Dew
Point
Rel
Hum
%
Delta-T
°C
Wind Press
QNH
hPa
Press
MSL
hPa
Rain
since 9 am
mm
Dir
 
Spd
km/h
Gust
km/h
Spd
kts
Gust
kts
21/11:30pm 13.6 14.4 13.6 100 0.0 E 2 4 1 2 1011.3 1011.2 0.2
21/11:00pm 13.7 13.7 13.7 100 0.0 ENE 6 9 3 5 1012.0 1011.9 0.2
21/10:30pm 13.5 14.3 12.7 95 0.4 CALM 0 0 0 0 1011.9 1011.8 0.2
21/10:00pm 14.3 15.0 12.2 87 1.1 CALM 0 0 0 0 1011.9 1011.8 0.2
21/09:30pm 14.7 15.0 10.9 78 2.0 CALM 0 0 0 0 1011.7 1011.6 0.2
21/09:00pm 15.6 14.7 11.2 75 2.4 WSW 7 7 4 4 1011.9 1011.8 0.2
21/08:30pm 16.8 16.2 11.7 72 2.8 W 6 7 3 4 1011.8 1011.7 0.2
21/08:00pm 18.5 18.3 12.9 70 3.2 SSW 6 7 3 4 1011.4 1011.3 0.2
21/07:30pm 18.8 18.3 12.8 68 3.4 S 7 13 4 7 1011.2 1011.1 0.2
21/07:00pm 18.9 16.0 12.4 66 3.6 S 19 20 10 11 1010.7 1010.6 0.2
21/06:30pm 19.7 16.9 12.7 64 3.9 SSW 19 24 10 13 1010.6 1010.5 0.2
21/06:00pm 20.6 18.1 12.3 59 4.7 SSW 17 24 9 13 1010.4 1010.3 0.2
21/05:30pm 20.9 17.9 11.8 56 5.1 SSW 19 22 10 12 1010.1 1010.0 0.2
21/05:00pm 21.9 19.8 12.5 55 5.3 SSW 15 24 8 13 1010.1 1010.0 0.2
21/04:30pm 22.8 18.9 8.5 40 7.6 WNW 19 28 10 15 1010.3 1010.2 0.2

Other Formats:

Comma delimited format used in spreadsheet applications
http://www.bom.gov.au/fwo/IDV60801/IDV60801.95822.axf

JavaScript Object Notation format (JSON) in row-major order
http://www.bom.gov.au/fwo/IDV60801/IDV60801.95822.json